Time,TemperatureF,DewpointF,PressureIn,WindDirection,WindDirectionDegrees,WindSpeedMPH,WindSpeedGustMPH,Humidity,HourlyPrecipIn,Conditions,Clouds,dailyrainin,SoftwareType,DateUTC
2013-02-01 00:09:00,9.8,1.0,30.43,NW,315,8.0,13.0,68,0.00,,,0.00,weatherlink.com 1.10,2013-02-01 06:09:00,
2013-02-01 00:24:00,9.6,1.0,30.43,West,262,7.0,16.0,68,0.00,,,0.00,weatherlink.com 1.10,2013-02-01 06:24:00,
2013-02-01 00:39:00,9.6,1.0,30.43,NNW,336,6.0,19.0,68,0.00,,,0.00,weatherlink.com 1.10,2013-02-01 06:39:00,
2013-02-01 00:54:00,9.6,2.0,30.43,WNW,301,8.0,15.0,70,0.00,,,0.00,weatherlink.com 1.10,2013-02-01 06:54:00,
2013-02-01 01:10:00,9.5,2.0,30.41,NNW,329,6.0,19.0,70,0.00,,,0.00,weatherlink.com 1.10,2013-02-01 07:10:00,
2013-02-01 01:24:00,9.4,2.0,30.43,NW,314,8.0,13.0,72,0.00,,,0.00,weatherlink.com 1.10,2013-02-01 07:24:00,
2013-02-01 01:39:00,9.2,2.0,30.44,WNW,293,3.0,17.0,72,0.00,,,0.00,weatherlink.com 1.10,2013-02-01 07:39:00,
2013-02-01 01:54:00,8.9,1.0,30.44,NW,314,6.0,11.0,70,0.00,,,0.00,weatherlink.com 1.10,2013-02-01 07:54:00,
2013-02-01 02:09:00,8.8,1.0,30.45,NW,322,2.0,12.0,70,0.00,,,0.00,weatherlink.com 1.10,2013-02-01 08:09:00,
2013-02-01 02:25:00,8.7,1.0,30.45,NW,308,4.0,11.0,70,0.00,,,0.00,weatherlink.com 1.10,2013-02-01 08:25:00,
2013-02-01 02:40:00,8.5,1.0,30.45,WNW,295,5.0,11.0,70,0.00,,,0.00,weatherlink.com 1.10,2013-02-01 08:40:00,
2013-02-01 02:55:00,8.4,1.0,30.44,North,11,10.0,10.0,71,0.00,,,0.00,weatherlink.com 1.10,2013-02-01 08:55:00,
2013-02-01 03:10:00,8.4,1.0,30.44,NNW,330,8.0,12.0,71,0.00,,,0.00,weatherlink.com 1.10,2013-02-01 09:10:00,
2013-02-01 03:25:00,8.3,1.0,30.44,NW,321,8.0,15.0,71,0.00,,,0.00,weatherlink.com 1.10,2013-02-01 09:25:00,
2013-02-01 03:41:00,8.3,1.0,30.44,NNW,327,4.0,10.0,71,0.00,,,0.00,weatherlink.com 1.10,2013-02-01 09:41:00,
2013-02-01 03:55:00,8.1,1.0,30.44,NNW,328,6.0,13.0,72,0.00,,,0.00,weatherlink.com 1.10,2013-02-01 09:55:00,
2013-02-01 04:10:00,8.0,1.0,30.44,NW,326,5.0,11.0,72,0.00,,,0.00,weatherlink.com 1.10,2013-02-01 10:10:00,
2013-02-01 04:29:00,8.0,1.0,30.44,NW,314,7.0,10.0,72,0.00,,,0.00,weatherlink.com 1.10,2013-02-01 10:29:00,
2013-02-01 04:40:00,8.0,1.0,30.44,WNW,293,6.0,10.0,74,0.00,,,0.00,weatherlink.com 1.10,2013-02-01 10:40:00,
2013-02-01 04:55:00,7.8,1.0,30.44,WNW,290,2.0,13.0,73,0.00,,,0.00,weatherlink.com 1.10,2013-02-01 10:55:00,
2013-02-01 05:10:00,7.9,1.0,30.45,NNW,345,7.0,14.0,72,0.00,,,0.00,weatherlink.com 1.10,2013-02-01 11:10:00,
2013-02-01 05:25:00,7.8,1.0,30.45,WNW,293,3.0,14.0,73,0.00,,,0.00,weatherlink.com 1.10,2013-02-01 11:25:00,
2013-02-01 05:41:00,7.7,1.0,30.46,NNW,329,5.0,5.0,74,0.00,,,0.00,weatherlink.com 1.10,2013-02-01 11:41:00,
2013-02-01 05:56:00,7.5,1.0,30.47,NNE,12,0.0,5.0,74,0.00,,,0.00,weatherlink.com 1.10,2013-02-01 11:56:00,
2013-02-01 06:11:00,7.4,1.0,30.46,NNW,340,1.0,5.0,76,0.00,,,0.00,weatherlink.com 1.10,2013-02-01 12:11:00,
2013-02-01 06:26:00,7.4,1.0,30.46,NNW,328,3.0,6.0,75,0.00,,,0.00,weatherlink.com 1.10,2013-02-01 12:26:00,
2013-02-01 06:41:00,7.3,1.0,30.47,WNW,298,3.0,6.0,74,0.00,,,0.00,weatherlink.com 1.10,2013-02-01 12:41:00,
2013-02-01 06:56:00,7.2,1.0,30.47,WNW,283,3.0,6.0,75,0.00,,,0.00,weatherlink.com 1.10,2013-02-01 12:56:00,
2013-02-01 07:11:00,7.2,1.0,30.47,NW,317,2.0,5.0,76,0.00,,,0.00,weatherlink.com 1.10,2013-02-01 13:11:00,
2013-02-01 07:26:00,7.4,1.0,30.47,NW,326,2.0,5.0,76,0.00,,,0.00,weatherlink.com 1.10,2013-02-01 13:26:00,
2013-02-01 07:41:00,7.7,2.0,30.48,WSW,245,2.0,3.0,76,0.00,,,0.00,weatherlink.com 1.10,2013-02-01 13:41:00,
2013-02-01 07:57:00,8.3,2.0,30.48,NW,326,3.0,6.0,75,0.00,,,0.00,weatherlink.com 1.10,2013-02-01 13:57:00,
2013-02-01 08:12:00,8.9,2.0,30.50,NW,322,4.0,6.0,73,0.00,,,0.00,weatherlink.com 1.10,2013-02-01 14:12:00,
2013-02-01 08:26:00,9.3,2.0,30.50,West,265,2.0,8.0,72,0.00,,,0.00,weatherlink.com 1.10,2013-02-01 14:26:00,
2013-02-01 08:41:00,9.9,3.0,30.51,West,277,2.0,6.0,73,0.00,,,0.00,weatherlink.com 1.10,2013-02-01 14:41:00,
2013-02-01 08:56:00,10.3,2.0,30.51,NW,323,4.0,8.0,70,0.00,,,0.00,weatherlink.com 1.10,2013-02-01 14:56:00,
2013-02-01 09:12:00,10.9,3.0,30.52,SW,225,0.0,6.0,70,0.00,,,0.00,weatherlink.com 1.10,2013-02-01 15:12:00,
2013-02-01 09:27:00,11.7,3.0,30.52,NW,318,2.0,10.0,67,0.00,,,0.00,weatherlink.com 1.10,2013-02-01 15:27:00,
2013-02-01 09:42:00,12.2,3.0,30.52,West,268,3.0,9.0,66,0.00,,,0.00,weatherlink.com 1.10,2013-02-01 15:42:00,
2013-02-01 09:57:00,13.3,3.0,30.51,West,262,4.0,11.0,64,0.00,,,0.00,weatherlink.com 1.10,2013-02-01 15:57:00,
2013-02-01 10:12:00,13.1,4.0,30.51,SW,221,6.0,7.0,66,0.00,,,0.00,weatherlink.com 1.10,2013-02-01 16:12:00,
2013-02-01 10:27:00,14.7,5.0,30.52,WSW,249,4.0,8.0,64,0.00,,,0.00,weatherlink.com 1.10,2013-02-01 16:27:00,
2013-02-01 10:42:00,15.0,4.0,30.51,SSE,158,1.0,7.0,63,0.00,,,0.00,weatherlink.com 1.10,2013-02-01 16:42:00,
2013-02-01 10:57:00,15.9,5.0,30.50,West,278,2.0,6.0,61,0.00,,,0.00,weatherlink.com 1.10,2013-02-01 16:57:00,
2013-02-01 11:12:00,15.8,5.0,30.51,SSW,200,3.0,7.0,62,0.00,,,0.00,weatherlink.com 1.10,2013-02-01 17:12:00,
2013-02-01 11:27:00,16.3,5.0,30.50,SSW,196,2.0,10.0,62,0.00,,,0.00,weatherlink.com 1.10,2013-02-01 17:27:00,
2013-02-01 11:42:00,17.9,5.0,30.50,West,273,5.0,8.0,58,0.00,,,0.00,weatherlink.com 1.10,2013-02-01 17:42:00,
2013-02-01 11:58:00,18.5,6.0,30.49,SW,235,3.0,9.0,59,0.00,,,0.00,weatherlink.com 1.10,2013-02-01 17:58:00,
2013-02-01 12:12:00,19.8,7.0,30.47,ESE,110,2.0,10.0,57,0.00,,,0.00,weatherlink.com 1.10,2013-02-01 18:12:00,
2013-02-01 12:27:00,20.4,7.0,30.47,South,191,4.0,8.0,57,0.00,,,0.00,weatherlink.com 1.10,2013-02-01 18:27:00,
2013-02-01 12:43:00,21.3,6.0,30.46,WNW,292,3.0,10.0,53,0.00,,,0.00,weatherlink.com 1.10,2013-02-01 18:43:00,
2013-02-01 12:58:00,21.6,7.0,30.45,ESE,122,1.0,8.0,54,0.00,,,0.00,weatherlink.com 1.10,2013-02-01 18:58:00,
2013-02-01 13:13:00,22.6,7.0,30.44,West,270,3.0,6.0,51,0.00,,,0.00,weatherlink.com 1.10,2013-02-01 19:13:00,
2013-02-01 13:28:00,22.7,7.0,30.44,WSW,255,4.0,8.0,50,0.00,,,0.00,weatherlink.com 1.10,2013-02-01 19:28:00,
2013-02-01 13:43:00,23.7,8.0,30.42,WSW,252,3.0,6.0,52,0.00,,,0.00,weatherlink.com 1.10,2013-02-01 19:43:00,
2013-02-01 13:58:00,23.8,8.0,30.41,West,268,1.0,7.0,50,0.00,,,0.00,weatherlink.com 1.10,2013-02-01 19:58:00,
2013-02-01 14:14:00,24.6,7.0,30.40,WNW,284,6.0,9.0,47,0.00,,,0.00,weatherlink.com 1.10,2013-02-01 20:14:00,
2013-02-01 14:28:00,24.0,7.0,30.40,WSW,244,1.0,7.0,49,0.00,,,0.00,weatherlink.com 1.10,2013-02-01 20:28:00,
2013-02-01 14:43:00,24.2,8.0,30.40,SSW,197,0.0,6.0,50,0.00,,,0.00,weatherlink.com 1.10,2013-02-01 20:43:00,
2013-02-01 14:58:00,25.0,8.0,30.39,WSW,250,3.0,6.0,49,0.00,,,0.00,weatherlink.com 1.10,2013-02-01 20:58:00,
2013-02-01 15:28:00,25.9,9.0,30.38,WSW,256,0.0,7.0,48,0.00,,,0.00,weatherlink.com 1.10,2013-02-01 21:28:00,
2013-02-01 15:44:00,25.9,8.0,30.38,West,266,2.0,9.0,47,0.00,,,0.00,weatherlink.com 1.10,2013-02-01 21:44:00,
2013-02-01 15:59:00,26.1,8.0,30.38,SSW,208,2.0,6.0,47,0.00,,,0.00,weatherlink.com 1.10,2013-02-01 21:59:00,
2013-02-01 16:14:00,25.7,8.0,30.37,South,189,2.0,8.0,48,0.00,,,0.00,weatherlink.com 1.10,2013-02-01 22:14:00,
2013-02-01 16:44:00,25.2,9.0,30.37,WSW,239,1.0,4.0,51,0.00,,,0.00,weatherlink.com 1.10,2013-02-01 22:44:00,
2013-02-01 16:59:00,25.1,8.0,30.37,SW,231,2.0,6.0,49,0.00,,,0.00,weatherlink.com 1.10,2013-02-01 22:59:00,
2013-02-01 17:14:00,25.1,8.0,30.36,SSW,211,2.0,5.0,49,0.00,,,0.00,weatherlink.com 1.10,2013-02-01 23:14:00,
2013-02-01 17:29:00,25.1,9.0,30.35,NW,321,1.0,5.0,50,0.00,,,0.00,weatherlink.com 1.10,2013-02-01 23:29:00,
2013-02-01 17:44:00,25.2,9.0,30.35,SSW,208,0.0,3.0,50,0.00,,,0.00,weatherlink.com 1.10,2013-02-01 23:44:00,
2013-02-01 17:59:00,25.1,9.0,30.34,SSE,150,0.0,2.0,51,0.00,,,0.00,weatherlink.com 1.10,2013-02-01 23:59:00,
2013-02-01 18:14:00,25.3,9.0,30.35,WSW,238,0.0,2.0,51,0.00,,,0.00,weatherlink.com 1.10,2013-02-02 00:14:00,
2013-02-01 18:29:00,25.3,11.0,30.34,SSE,158,2.0,2.0,54,0.00,,,0.00,weatherlink.com 1.10,2013-02-02 00:29:00,
2013-02-01 18:44:00,25.5,11.0,30.33,South,175,0.0,3.0,54,0.00,,,0.00,weatherlink.com 1.10,2013-02-02 00:44:00,
2013-02-01 18:59:00,25.7,11.0,30.32,SE,144,4.0,4.0,55,0.00,,,0.00,weatherlink.com 1.10,2013-02-02 00:59:00,
2013-02-01 19:14:00,25.9,12.0,30.31,SSE,148,0.0,3.0,56,0.00,,,0.00,weatherlink.com 1.10,2013-02-02 01:14:00,
2013-02-01 19:30:00,26.0,12.0,30.31,SSE,147,2.0,3.0,56,0.00,,,0.00,weatherlink.com 1.10,2013-02-02 01:30:00,
2013-02-01 19:45:00,26.1,13.0,30.31,SSE,155,0.0,3.0,57,0.00,,,0.00,weatherlink.com 1.10,2013-02-02 01:45:00,
2013-02-01 20:00:00,26.3,12.0,30.31,SSE,167,1.0,6.0,56,0.00,,,0.00,weatherlink.com 1.10,2013-02-02 02:00:00,
2013-02-01 20:15:00,26.5,13.0,30.30,SSW,208,4.0,10.0,58,0.00,,,0.00,weatherlink.com 1.10,2013-02-02 02:15:00,
2013-02-01 20:45:00,26.5,15.0,30.29,ESE,118,1.0,3.0,62,0.00,,,0.00,weatherlink.com 1.10,2013-02-02 02:45:00,
2013-02-01 21:00:00,26.6,15.0,30.29,WSW,255,1.0,4.0,61,0.00,,,0.00,weatherlink.com 1.10,2013-02-02 03:00:00,
2013-02-01 21:15:00,26.8,14.0,30.29,SSW,205,0.0,3.0,60,0.00,,,0.00,weatherlink.com 1.10,2013-02-02 03:15:00,
2013-02-01 21:30:00,27.0,14.0,30.28,SW,215,1.0,3.0,59,0.00,,,0.00,weatherlink.com 1.10,2013-02-02 03:30:00,
2013-02-01 21:46:00,27.3,14.0,30.28,SSW,207,1.0,3.0,58,0.00,,,0.00,weatherlink.com 1.10,2013-02-02 03:46:00,
2013-02-01 22:00:00,27.5,14.0,30.27,SSE,159,1.0,7.0,56,0.00,,,0.00,weatherlink.com 1.10,2013-02-02 04:00:00,
2013-02-01 22:15:00,27.7,15.0,30.27,SSW,203,0.0,6.0,58,0.00,,,0.00,weatherlink.com 1.10,2013-02-02 04:15:00,
2013-02-01 22:30:00,27.8,13.0,30.26,SE,145,1.0,6.0,55,0.00,,,0.00,weatherlink.com 1.10,2013-02-02 04:30:00,
2013-02-01 22:46:00,28.0,14.0,30.25,SSW,197,2.0,6.0,55,0.00,,,0.00,weatherlink.com 1.10,2013-02-02 04:46:00,
2013-02-01 23:01:00,28.3,14.0,30.25,WSW,244,2.0,9.0,55,0.00,,,0.00,weatherlink.com 1.10,2013-02-02 05:01:00,
2013-02-01 23:16:00,28.4,14.0,30.24,South,179,3.0,8.0,56,0.00,,,0.00,weatherlink.com 1.10,2013-02-02 05:16:00,
2013-02-01 23:31:00,28.6,15.0,30.23,SE,131,1.0,6.0,56,0.00,,,0.00,weatherlink.com 1.10,2013-02-02 05:31:00,
2013-02-01 23:46:00,28.7,14.0,30.23,South,191,6.0,8.0,55,0.00,,,0.00,weatherlink.com 1.10,2013-02-02 05:46:00,